sensor_id;sensor_type;location;lat;lon;timestamp;pressure;altitude;pressure_sealevel;temperature;humidity
22964;BME280;11648;49.306;6.934;2023-06-19T00:02:11;98003.84;;;25.16;59.65
22964;BME280;11648;49.306;6.934;2023-06-19T00:04:38;98005.06;;;25.12;59.75
22964;BME280;11648;49.306;6.934;2023-06-19T00:07:05;98004.06;;;25.02;60.80
22964;BME280;11648;49.306;6.934;2023-06-19T00:09:32;97997.75;;;24.90;60.30
22964;BME280;11648;49.306;6.934;2023-06-19T00:11:59;98004.97;;;24.90;60.02
22964;BME280;11648;49.306;6.934;2023-06-19T00:14:27;98014.47;;;24.83;60.74
22964;BME280;11648;49.306;6.934;2023-06-19T00:16:54;98006.00;;;24.76;61.91
22964;BME280;11648;49.306;6.934;2023-06-19T00:19:21;98008.16;;;24.84;62.02
22964;BME280;11648;49.306;6.934;2023-06-19T00:21:47;97990.03;;;24.86;62.19
22964;BME280;11648;49.306;6.934;2023-06-19T00:24:14;98001.78;;;24.85;62.77
22964;BME280;11648;49.306;6.934;2023-06-19T00:26:41;98017.28;;;24.81;62.28
22964;BME280;11648;49.306;6.934;2023-06-19T00:29:10;98030.56;;;24.84;62.02
22964;BME280;11648;49.306;6.934;2023-06-19T00:31:37;98034.03;;;24.74;60.13
22964;BME280;11648;49.306;6.934;2023-06-19T00:34:03;98023.25;;;24.74;61.73
22964;BME280;11648;49.306;6.934;2023-06-19T00:36:30;98010.75;;;24.73;61.29
22964;BME280;11648;49.306;6.934;2023-06-19T00:38:57;98005.56;;;24.58;61.41
22964;BME280;11648;49.306;6.934;2023-06-19T00:41:26;97976.34;;;24.65;61.01
22964;BME280;11648;49.306;6.934;2023-06-19T00:43:54;97964.94;;;24.62;61.64
22964;BME280;11648;49.306;6.934;2023-06-19T00:46:20;97967.06;;;24.69;61.42
22964;BME280;11648;49.306;6.934;2023-06-19T00:48:48;97976.97;;;24.69;61.35
22964;BME280;11648;49.306;6.934;2023-06-19T00:51:17;97980.03;;;24.64;61.77
22964;BME280;11648;49.306;6.934;2023-06-19T00:53:44;97965.41;;;24.55;62.56
22964;BME280;11648;49.306;6.934;2023-06-19T00:56:11;97973.97;;;24.49;62.72
22964;BME280;11648;49.306;6.934;2023-06-19T00:58:38;97993.22;;;24.43;63.20
22964;BME280;11648;49.306;6.934;2023-06-19T01:01:05;98004.84;;;24.44;63.04
22964;BME280;11648;49.306;6.934;2023-06-19T01:03:36;97992.16;;;24.46;63.09
22964;BME280;11648;49.306;6.934;2023-06-19T01:06:10;98003.25;;;24.41;63.28
22964;BME280;11648;49.306;6.934;2023-06-19T01:11:18;98014.81;;;24.31;63.13
22964;BME280;11648;49.306;6.934;2023-06-19T01:14:00;98008.25;;;24.35;63.08
22964;BME280;11648;49.306;6.934;2023-06-19T01:16:30;98005.47;;;24.11;63.20
22964;BME280;11648;49.306;6.934;2023-06-19T01:18:58;98006.00;;;24.03;63.49
22964;BME280;11648;49.306;6.934;2023-06-19T01:21:24;98021.81;;;24.08;63.27
22964;BME280;11648;49.306;6.934;2023-06-19T01:23:51;98018.63;;;24.03;63.21
22964;BME280;11648;49.306;6.934;2023-06-19T01:26:20;98027.53;;;24.03;63.12
22964;BME280;11648;49.306;6.934;2023-06-19T01:28:47;98034.63;;;24.04;63.16
22964;BME280;11648;49.306;6.934;2023-06-19T01:31:20;98027.97;;;24.10;63.27
22964;BME280;11648;49.306;6.934;2023-06-19T01:33:51;98036.19;;;23.96;63.42
22964;BME280;11648;49.306;6.934;2023-06-19T01:36:20;98037.56;;;24.01;63.49
22964;BME280;11648;49.306;6.934;2023-06-19T01:38:48;98041.09;;;24.02;63.42
22964;BME280;11648;49.306;6.934;2023-06-19T01:41:17;98040.47;;;23.86;63.81
22964;BME280;11648;49.306;6.934;2023-06-19T01:43:45;98039.81;;;23.82;64.05
22964;BME280;11648;49.306;6.934;2023-06-19T01:46:13;98049.63;;;23.71;64.50
22964;BME280;11648;49.306;6.934;2023-06-19T01:48:40;98056.59;;;23.60;64.98
22964;BME280;11648;49.306;6.934;2023-06-19T01:51:07;98058.66;;;23.44;64.97
22964;BME280;11648;49.306;6.934;2023-06-19T01:53:34;98072.72;;;23.48;65.39
22964;BME280;11648;49.306;6.934;2023-06-19T01:56:03;98072.78;;;23.34;65.58
22964;BME280;11648;49.306;6.934;2023-06-19T01:58:30;98082.31;;;23.25;65.72
22964;BME280;11648;49.306;6.934;2023-06-19T02:00:57;98077.19;;;23.35;65.70
22964;BME280;11648;49.306;6.934;2023-06-19T02:03:24;98084.94;;;23.39;66.03
22964;BME280;11648;49.306;6.934;2023-06-19T02:05:52;98075.25;;;23.37;65.33
22964;BME280;11648;49.306;6.934;2023-06-19T02:08:19;98081.88;;;23.45;65.93
22964;BME280;11648;49.306;6.934;2023-06-19T02:10:46;98087.91;;;23.49;65.45
22964;BME280;11648;49.306;6.934;2023-06-19T02:13:12;98085.41;;;23.58;65.59
22964;BME280;11648;49.306;6.934;2023-06-19T02:15:39;98080.38;;;23.67;65.27
22964;BME280;11648;49.306;6.934;2023-06-19T02:18:06;98075.00;;;23.67;64.65
22964;BME280;11648;49.306;6.934;2023-06-19T02:20:33;98072.63;;;23.62;64.67
22964;BME280;11648;49.306;6.934;2023-06-19T02:23:00;98071.97;;;23.58;64.81
22964;BME280;11648;49.306;6.934;2023-06-19T02:25:29;98075.75;;;23.56;64.71
22964;BME280;11648;49.306;6.934;2023-06-19T02:27:55;98069.09;;;23.61;65.10
22964;BME280;11648;49.306;6.934;2023-06-19T02:30:22;98072.75;;;23.73;64.53
22964;BME280;11648;49.306;6.934;2023-06-19T02:32:49;98073.59;;;23.74;64.80
22964;BME280;11648;49.306;6.934;2023-06-19T02:35:16;98085.00;;;23.77;64.27
22964;BME280;11648;49.306;6.934;2023-06-19T02:37:43;98077.22;;;23.85;64.51
22964;BME280;11648;49.306;6.934;2023-06-19T02:40:13;98077.78;;;23.90;63.96
22964;BME280;11648;49.306;6.934;2023-06-19T02:42:40;98087.34;;;23.94;63.76
22964;BME280;11648;49.306;6.934;2023-06-19T02:45:07;98081.13;;;23.81;63.58
22964;BME280;11648;49.306;6.934;2023-06-19T02:47:35;98079.06;;;23.97;62.64
22964;BME280;11648;49.306;6.934;2023-06-19T02:50:03;98100.03;;;24.05;62.55
22964;BME280;11648;49.306;6.934;2023-06-19T02:52:30;98098.75;;;23.98;62.96
22964;BME280;11648;49.306;6.934;2023-06-19T02:54:58;98098.97;;;23.95;62.90
22964;BME280;11648;49.306;6.934;2023-06-19T02:57:25;98106.72;;;23.74;63.82
22964;BME280;11648;49.306;6.934;2023-06-19T02:59:52;98105.44;;;23.80;64.38
22964;BME280;11648;49.306;6.934;2023-06-19T03:02:19;98109.97;;;23.40;65.77
22964;BME280;11648;49.306;6.934;2023-06-19T03:04:46;98107.16;;;23.29;66.28
22964;BME280;11648;49.306;6.934;2023-06-19T03:07:13;98100.84;;;23.42;65.89
22964;BME280;11648;49.306;6.934;2023-06-19T03:09:43;98098.31;;;23.53;65.25
22964;BME280;11648;49.306;6.934;2023-06-19T03:12:10;98099.41;;;23.64;65.14
22964;BME280;11648;49.306;6.934;2023-06-19T03:14:37;98106.94;;;23.32;66.23
22964;BME280;11648;49.306;6.934;2023-06-19T03:17:04;98116.97;;;23.42;66.34
22964;BME280;11648;49.306;6.934;2023-06-19T03:19:31;98121.03;;;23.35;66.45
22964;BME280;11648;49.306;6.934;2023-06-19T03:21:58;98116.38;;;23.51;66.65
22964;BME280;11648;49.306;6.934;2023-06-19T03:24:25;98123.13;;;23.57;65.84
22964;BME280;11648;49.306;6.934;2023-06-19T03:26:57;98126.03;;;23.54;66.18
22964;BME280;11648;49.306;6.934;2023-06-19T03:29:24;98128.41;;;23.71;65.42
22964;BME280;11648;49.306;6.934;2023-06-19T03:31:57;98127.03;;;23.66;65.62
22964;BME280;11648;49.306;6.934;2023-06-19T03:34:29;98133.88;;;23.57;66.23
22964;BME280;11648;49.306;6.934;2023-06-19T03:36:57;98144.31;;;23.61;66.11
22964;BME280;11648;49.306;6.934;2023-06-19T03:39:24;98138.44;;;23.69;65.91
22964;BME280;11648;49.306;6.934;2023-06-19T03:41:55;98140.59;;;23.37;67.14
22964;BME280;11648;49.306;6.934;2023-06-19T03:44:22;98139.91;;;23.48;66.96
22964;BME280;11648;49.306;6.934;2023-06-19T03:46:48;98139.59;;;23.52;66.86
22964;BME280;11648;49.306;6.934;2023-06-19T03:49:18;98135.06;;;23.53;66.97
22964;BME280;11648;49.306;6.934;2023-06-19T03:51:45;98140.66;;;23.50;66.97
22964;BME280;11648;49.306;6.934;2023-06-19T03:54:11;98133.34;;;23.52;67.13
22964;BME280;11648;49.306;6.934;2023-06-19T03:56:38;98143.25;;;23.64;66.50
22964;BME280;11648;49.306;6.934;2023-06-19T03:59:05;98151.59;;;23.47;66.76
22964;BME280;11648;49.306;6.934;2023-06-19T04:01:32;98149.31;;;23.41;67.28
22964;BME280;11648;49.306;6.934;2023-06-19T04:03:59;98142.16;;;23.54;66.86
22964;BME280;11648;49.306;6.934;2023-06-19T04:06:26;98155.38;;;23.44;67.40
22964;BME280;11648;49.306;6.934;2023-06-19T04:08:53;98155.59;;;23.41;67.44
22964;BME280;11648;49.306;6.934;2023-06-19T04:11:22;98147.06;;;23.35;67.66
22964;BME280;11648;49.306;6.934;2023-06-19T04:13:50;98140.38;;;23.40;67.57
22964;BME280;11648;49.306;6.934;2023-06-19T04:16:17;98141.63;;;23.49;67.22
22964;BME280;11648;49.306;6.934;2023-06-19T04:18:43;98142.84;;;23.31;67.61
22964;BME280;11648;49.306;6.934;2023-06-19T04:21:11;98152.50;;;23.33;67.94
22964;BME280;11648;49.306;6.934;2023-06-19T04:23:38;98156.31;;;23.43;67.59
22964;BME280;11648;49.306;6.934;2023-06-19T04:26:05;98157.59;;;23.38;67.54
22964;BME280;11648;49.306;6.934;2023-06-19T04:28:31;98154.44;;;23.31;68.19
22964;BME280;11648;49.306;6.934;2023-06-19T04:30:58;98152.00;;;23.41;67.90
22964;BME280;11648;49.306;6.934;2023-06-19T04:33:28;98159.41;;;23.37;67.76
22964;BME280;11648;49.306;6.934;2023-06-19T04:35:56;98154.97;;;23.36;68.17
22964;BME280;11648;49.306;6.934;2023-06-19T04:38:23;98159.69;;;23.33;68.04
22964;BME280;11648;49.306;6.934;2023-06-19T04:40:51;98156.06;;;23.34;68.32
22964;BME280;11648;49.306;6.934;2023-06-19T04:43:18;98156.88;;;23.48;67.49
22964;BME280;11648;49.306;6.934;2023-06-19T04:45:45;98164.56;;;23.67;67.05
22964;BME280;11648;49.306;6.934;2023-06-19T04:48:11;98161.09;;;23.52;67.81
22964;BME280;11648;49.306;6.934;2023-06-19T04:50:38;98155.63;;;23.79;67.11
22964;BME280;11648;49.306;6.934;2023-06-19T04:53:05;98162.31;;;23.74;67.00
22964;BME280;11648;49.306;6.934;2023-06-19T04:55:32;98169.84;;;23.81;66.81
22964;BME280;11648;49.306;6.934;2023-06-19T04:57:59;98166.38;;;23.67;67.38
22964;BME280;11648;49.306;6.934;2023-06-19T05:00:26;98165.66;;;23.11;69.22
22964;BME280;11648;49.306;6.934;2023-06-19T05:02:53;98157.53;;;23.52;68.02
22964;BME280;11648;49.306;6.934;2023-06-19T05:05:20;98163.84;;;23.24;68.61
22964;BME280;11648;49.306;6.934;2023-06-19T05:07:50;98166.66;;;23.49;68.12
22964;BME280;11648;49.306;6.934;2023-06-19T05:10:17;98165.09;;;23.59;68.10
22964;BME280;11648;49.306;6.934;2023-06-19T05:12:44;98164.66;;;23.66;68.03
22964;BME280;11648;49.306;6.934;2023-06-19T05:15:11;98162.97;;;23.77;67.27
22964;BME280;11648;49.306;6.934;2023-06-19T05:17:37;98149.69;;;23.61;67.44
22964;BME280;11648;49.306;6.934;2023-06-19T05:20:06;98158.06;;;23.57;67.83
22964;BME280;11648;49.306;6.934;2023-06-19T05:22:34;98147.66;;;23.65;67.30
22964;BME280;11648;49.306;6.934;2023-06-19T05:25:01;98143.81;;;23.69;67.17
22964;BME280;11648;49.306;6.934;2023-06-19T05:27:27;98150.47;;;23.76;66.83
22964;BME280;11648;49.306;6.934;2023-06-19T05:29:54;98151.59;;;23.99;66.08
22964;BME280;11648;49.306;6.934;2023-06-19T05:32:21;98152.78;;;24.20;65.78
22964;BME280;11648;49.306;6.934;2023-06-19T05:34:48;98142.63;;;24.11;65.73
22964;BME280;11648;49.306;6.934;2023-06-19T05:37:14;98143.91;;;24.43;64.92
22964;BME280;11648;49.306;6.934;2023-06-19T05:39:41;98140.25;;;24.57;64.20
22964;BME280;11648;49.306;6.934;2023-06-19T05:42:08;98146.53;;;24.20;64.82
22964;BME280;11648;49.306;6.934;2023-06-19T05:44:34;98155.34;;;24.22;64.79
22964;BME280;11648;49.306;6.934;2023-06-19T05:47:01;98150.50;;;24.14;65.44
22964;BME280;11648;49.306;6.934;2023-06-19T05:49:28;98160.09;;;24.18;65.31
22964;BME280;11648;49.306;6.934;2023-06-19T05:51:55;98167.53;;;24.27;64.63
22964;BME280;11648;49.306;6.934;2023-06-19T05:54:25;98163.56;;;24.20;64.73
22964;BME280;11648;49.306;6.934;2023-06-19T05:56:52;98163.38;;;23.96;65.78
22964;BME280;11648;49.306;6.934;2023-06-19T05:59:19;98165.06;;;24.24;64.62
22964;BME280;11648;49.306;6.934;2023-06-19T06:01:46;98155.78;;;24.16;64.62
22964;BME280;11648;49.306;6.934;2023-06-19T06:04:13;98160.38;;;24.64;63.63
22964;BME280;11648;49.306;6.934;2023-06-19T06:06:40;98170.88;;;24.80;63.07
22964;BME280;11648;49.306;6.934;2023-06-19T06:09:07;98171.28;;;24.99;62.39
22964;BME280;11648;49.306;6.934;2023-06-19T06:11:37;98184.00;;;24.97;62.10
22964;BME280;11648;49.306;6.934;2023-06-19T06:14:04;98172.50;;;24.70;62.71
22964;BME280;11648;49.306;6.934;2023-06-19T06:16:31;98191.72;;;25.01;61.88
22964;BME280;11648;49.306;6.934;2023-06-19T06:18:57;98192.41;;;24.80;62.32
22964;BME280;11648;49.306;6.934;2023-06-19T06:21:25;98188.03;;;25.15;61.61
22964;BME280;11648;49.306;6.934;2023-06-19T06:23:52;98195.94;;;25.29;60.65
22964;BME280;11648;49.306;6.934;2023-06-19T06:26:20;98198.53;;;25.54;60.57
22964;BME280;11648;49.306;6.934;2023-06-19T06:28:48;98197.19;;;25.36;60.36
22964;BME280;11648;49.306;6.934;2023-06-19T06:31:14;98206.16;;;25.00;60.79
22964;BME280;11648;49.306;6.934;2023-06-19T06:33:41;98202.03;;;25.07;60.04
22964;BME280;11648;49.306;6.934;2023-06-19T06:36:08;98205.03;;;24.92;60.03
22964;BME280;11648;49.306;6.934;2023-06-19T06:38:35;98207.34;;;25.09;59.90
22964;BME280;11648;49.306;6.934;2023-06-19T06:41:02;98216.06;;;25.36;58.89
22964;BME280;11648;49.306;6.934;2023-06-19T06:43:29;98222.31;;;25.37;59.14
22964;BME280;11648;49.306;6.934;2023-06-19T06:45:55;98213.31;;;25.73;57.87
22964;BME280;11648;49.306;6.934;2023-06-19T06:48:22;98214.13;;;26.21;56.95
22964;BME280;11648;49.306;6.934;2023-06-19T06:50:49;98224.56;;;26.47;55.70
22964;BME280;11648;49.306;6.934;2023-06-19T06:53:15;98234.91;;;26.53;55.27
22964;BME280;11648;49.306;6.934;2023-06-19T06:55:42;98231.00;;;26.69;55.38
22964;BME280;11648;49.306;6.934;2023-06-19T06:58:09;98234.56;;;27.02;54.34
22964;BME280;11648;49.306;6.934;2023-06-19T07:00:35;98242.53;;;26.71;53.93
22964;BME280;11648;49.306;6.934;2023-06-19T07:03:02;98230.50;;;26.75;53.79
22964;BME280;11648;49.306;6.934;2023-06-19T07:05:29;98237.00;;;27.17;52.94
22964;BME280;11648;49.306;6.934;2023-06-19T07:07:59;98250.25;;;27.20;52.71
22964;BME280;11648;49.306;6.934;2023-06-19T07:10:25;98258.63;;;27.06;52.75
22964;BME280;11648;49.306;6.934;2023-06-19T07:12:53;98260.84;;;26.89;53.24
22964;BME280;11648;49.306;6.934;2023-06-19T07:15:20;98261.94;;;26.98;53.37
22964;BME280;11648;49.306;6.934;2023-06-19T07:17:47;98279.69;;;26.10;54.60
22964;BME280;11648;49.306;6.934;2023-06-19T07:20:14;98279.88;;;25.96;55.64
22964;BME280;11648;49.306;6.934;2023-06-19T07:22:42;98291.47;;;25.62;56.47
22964;BME280;11648;49.306;6.934;2023-06-19T07:25:11;98273.53;;;26.32;55.25
22964;BME280;11648;49.306;6.934;2023-06-19T07:27:40;98279.44;;;26.59;54.48
22964;BME280;11648;49.306;6.934;2023-06-19T07:30:07;98285.63;;;26.94;53.59
22964;BME280;11648;49.306;6.934;2023-06-19T07:32:34;98275.69;;;27.17;52.78
22964;BME280;11648;49.306;6.934;2023-06-19T07:35:01;98280.81;;;27.54;51.97
22964;BME280;11648;49.306;6.934;2023-06-19T07:37:28;98267.47;;;27.84;51.39
22964;BME280;11648;49.306;6.934;2023-06-19T07:39:54;98273.94;;;27.92;51.43
22964;BME280;11648;49.306;6.934;2023-06-19T07:42:22;98257.78;;;28.85;48.79
22964;BME280;11648;49.306;6.934;2023-06-19T07:44:49;98267.06;;;28.82;48.42
22964;BME280;11648;49.306;6.934;2023-06-19T07:47:16;98273.66;;;28.89;48.06
22964;BME280;11648;49.306;6.934;2023-06-19T07:49:44;98267.06;;;29.22;47.23
22964;BME280;11648;49.306;6.934;2023-06-19T07:52:12;98275.22;;;28.41;48.80
22964;BME280;11648;49.306;6.934;2023-06-19T07:54:54;98277.81;;;28.11;49.42
22964;BME280;11648;49.306;6.934;2023-06-19T07:57:22;98277.09;;;28.09;49.32
22964;BME280;11648;49.306;6.934;2023-06-19T07:59:50;98270.44;;;28.54;48.26
22964;BME280;11648;49.306;6.934;2023-06-19T08:02:17;98265.84;;;29.26;47.33
22964;BME280;11648;49.306;6.934;2023-06-19T08:04:45;98267.06;;;29.22;46.58
22964;BME280;11648;49.306;6.934;2023-06-19T08:07:12;98276.31;;;29.40;46.93
22964;BME280;11648;49.306;6.934;2023-06-19T08:09:39;98267.88;;;29.34;46.71
22964;BME280;11648;49.306;6.934;2023-06-19T08:12:06;98266.31;;;29.11;46.82
22964;BME280;11648;49.306;6.934;2023-06-19T08:14:32;98260.09;;;28.89;46.88
22964;BME280;11648;49.306;6.934;2023-06-19T08:16:59;98266.19;;;28.82;46.98
22964;BME280;11648;49.306;6.934;2023-06-19T08:19:26;98272.44;;;28.52;47.93
22964;BME280;11648;49.306;6.934;2023-06-19T08:21:53;98265.47;;;28.80;47.67
22964;BME280;11648;49.306;6.934;2023-06-19T08:24:19;98258.94;;;29.53;46.39
22964;BME280;11648;49.306;6.934;2023-06-19T08:26:46;98254.38;;;29.82;45.32
22964;BME280;11648;49.306;6.934;2023-06-19T08:29:18;98256.56;;;30.17;44.50
22964;BME280;11648;49.306;6.934;2023-06-19T08:31:45;98272.84;;;29.38;45.55
22964;BME280;11648;49.306;6.934;2023-06-19T08:34:11;98274.78;;;29.67;45.53
22964;BME280;11648;49.306;6.934;2023-06-19T08:36:38;98272.91;;;29.48;45.37
22964;BME280;11648;49.306;6.934;2023-06-19T08:39:05;98275.13;;;29.33;45.84
22964;BME280;11648;49.306;6.934;2023-06-19T08:41:36;98265.41;;;29.90;45.21
22964;BME280;11648;49.306;6.934;2023-06-19T08:44:05;98266.34;;;29.60;44.39
22964;BME280;11648;49.306;6.934;2023-06-19T08:46:32;98270.66;;;29.63;44.69
22964;BME280;11648;49.306;6.934;2023-06-19T08:48:59;98275.31;;;29.51;45.10
22964;BME280;11648;49.306;6.934;2023-06-19T08:51:27;98280.47;;;29.45;45.20
22964;BME280;11648;49.306;6.934;2023-06-19T08:54:04;98279.03;;;29.50;44.94
22964;BME280;11648;49.306;6.934;2023-06-19T08:56:32;98277.81;;;29.92;44.62
22964;BME280;11648;49.306;6.934;2023-06-19T08:59:10;98273.91;;;29.57;44.73
22964;BME280;11648;49.306;6.934;2023-06-19T09:01:38;98268.91;;;29.62;44.55
22964;BME280;11648;49.306;6.934;2023-06-19T09:04:09;98272.28;;;29.84;44.08
22964;BME280;11648;49.306;6.934;2023-06-19T09:06:55;98258.09;;;30.58;43.22
22964;BME280;11648;49.306;6.934;2023-06-19T09:09:25;98265.06;;;31.16;42.88
22964;BME280;11648;49.306;6.934;2023-06-19T09:17:06;98252.41;;;30.88;41.75
22964;BME280;11648;49.306;6.934;2023-06-19T09:19:37;98254.06;;;30.62;43.03
22964;BME280;11648;49.306;6.934;2023-06-19T09:22:06;98271.50;;;29.23;44.61
22964;BME280;11648;49.306;6.934;2023-06-19T09:24:39;98262.41;;;30.12;43.80
22964;BME280;11648;49.306;6.934;2023-06-19T09:27:11;98249.06;;;31.13;41.39
22964;BME280;11648;49.306;6.934;2023-06-19T09:29:46;98247.25;;;31.31;41.05
22964;BME280;11648;49.306;6.934;2023-06-19T09:34:49;98247.19;;;31.41;40.42
22964;BME280;11648;49.306;6.934;2023-06-19T09:37:22;98243.00;;;32.09;39.68
22964;BME280;11648;49.306;6.934;2023-06-19T09:39:58;98244.56;;;31.22;40.29
22964;BME280;11648;49.306;6.934;2023-06-19T09:42:30;98252.66;;;30.58;41.33
22964;BME280;11648;49.306;6.934;2023-06-19T09:45:09;98234.84;;;32.09;38.92
22964;BME280;11648;49.306;6.934;2023-06-19T09:47:45;98224.47;;;33.50;37.01
22964;BME280;11648;49.306;6.934;2023-06-19T09:50:16;98198.66;;;34.18;36.08
22964;BME280;11648;49.306;6.934;2023-06-19T09:52:47;98206.63;;;34.60;34.51
22964;BME280;11648;49.306;6.934;2023-06-19T09:55:14;98190.78;;;35.50;34.00
22964;BME280;11648;49.306;6.934;2023-06-19T09:57:42;98179.56;;;36.50;32.58
22964;BME280;11648;49.306;6.934;2023-06-19T10:00:10;98186.34;;;36.02;32.98
22964;BME280;11648;49.306;6.934;2023-06-19T10:02:45;98186.94;;;34.89;33.27
22964;BME280;11648;49.306;6.934;2023-06-19T10:05:13;98184.06;;;34.83;33.22
22964;BME280;11648;49.306;6.934;2023-06-19T10:07:43;98190.97;;;35.09;32.54
22964;BME280;11648;49.306;6.934;2023-06-19T10:10:12;98174.41;;;35.95;31.38
22964;BME280;11648;49.306;6.934;2023-06-19T10:12:49;98168.25;;;37.41;29.68
22964;BME280;11648;49.306;6.934;2023-06-19T10:15:19;98152.41;;;38.43;28.78
22964;BME280;11648;49.306;6.934;2023-06-19T10:18:07;98157.69;;;37.59;28.98
22964;BME280;11648;49.306;6.934;2023-06-19T10:25:32;98155.03;;;38.08;28.79
22964;BME280;11648;49.306;6.934;2023-06-19T10:28:00;98147.06;;;38.69;27.24
22964;BME280;11648;49.306;6.934;2023-06-19T10:30:28;98145.06;;;39.79;26.19
22964;BME280;11648;49.306;6.934;2023-06-19T10:32:56;98139.38;;;40.60;24.80
22964;BME280;11648;49.306;6.934;2023-06-19T10:35:23;98134.38;;;39.50;26.27
22964;BME280;11648;49.306;6.934;2023-06-19T10:37:51;98138.78;;;40.18;25.95
22964;BME280;11648;49.306;6.934;2023-06-19T10:40:18;98131.03;;;40.86;25.16
22964;BME280;11648;49.306;6.934;2023-06-19T10:42:45;98144.69;;;38.60;26.96
22964;BME280;11648;49.306;6.934;2023-06-19T10:45:14;98140.88;;;38.12;27.58
22964;BME280;11648;49.306;6.934;2023-06-19T10:47:44;98130.09;;;39.41;26.81
22964;BME280;11648;49.306;6.934;2023-06-19T10:50:15;98125.16;;;40.10;26.58
22964;BME280;11648;49.306;6.934;2023-06-19T10:52:43;98120.81;;;40.93;25.17
22964;BME280;11648;49.306;6.934;2023-06-19T10:55:12;98105.66;;;41.98;24.15
22964;BME280;11648;49.306;6.934;2023-06-19T10:57:49;98128.75;;;42.59;22.83
22964;BME280;11648;49.306;6.934;2023-06-19T11:00:27;98127.56;;;42.73;22.05
22964;BME280;11648;49.306;6.934;2023-06-19T11:02:58;98126.47;;;42.31;22.06
22964;BME280;11648;49.306;6.934;2023-06-19T11:05:26;98124.53;;;42.32;22.70
22964;BME280;11648;49.306;6.934;2023-06-19T11:07:58;98119.28;;;42.49;21.73
22964;BME280;11648;49.306;6.934;2023-06-19T11:10:28;98123.75;;;42.74;21.81
22964;BME280;11648;49.306;6.934;2023-06-19T11:12:58;98130.56;;;42.72;21.50
22964;BME280;11648;49.306;6.934;2023-06-19T11:15:32;98120.50;;;42.77;21.50
22964;BME280;11648;49.306;6.934;2023-06-19T11:18:01;98117.22;;;41.88;22.49
22964;BME280;11648;49.306;6.934;2023-06-19T11:20:29;98113.53;;;42.25;22.48
22964;BME280;11648;49.306;6.934;2023-06-19T11:22:57;98115.06;;;41.59;22.50
22964;BME280;11648;49.306;6.934;2023-06-19T11:25:38;98131.28;;;41.35;22.97
22964;BME280;11648;49.306;6.934;2023-06-19T11:28:11;98131.25;;;40.98;23.33
22964;BME280;11648;49.306;6.934;2023-06-19T11:30:39;98123.88;;;40.06;24.84
22964;BME280;11648;49.306;6.934;2023-06-19T11:33:20;98126.44;;;39.94;24.73
22964;BME280;11648;49.306;6.934;2023-06-19T11:35:51;98122.06;;;39.46;25.07
22964;BME280;11648;49.306;6.934;2023-06-19T11:38:23;98129.88;;;40.23;25.18
22964;BME280;11648;49.306;6.934;2023-06-19T11:40:50;98141.38;;;39.53;25.65
22964;BME280;11648;49.306;6.934;2023-06-19T11:45:52;98135.88;;;38.71;26.61
22964;BME280;11648;49.306;6.934;2023-06-19T11:48:26;98132.41;;;38.34;27.34
22964;BME280;11648;49.306;6.934;2023-06-19T11:50:53;98133.31;;;37.71;28.57
22964;BME280;11648;49.306;6.934;2023-06-19T11:53:21;98142.44;;;37.21;28.63
22964;BME280;11648;49.306;6.934;2023-06-19T11:55:49;98150.00;;;36.46;29.75
22964;BME280;11648;49.306;6.934;2023-06-19T11:58:16;98149.63;;;36.11;29.56
22964;BME280;11648;49.306;6.934;2023-06-19T12:00:44;98153.94;;;35.60;30.63
22964;BME280;11648;49.306;6.934;2023-06-19T12:03:10;98165.66;;;35.77;30.71
22964;BME280;11648;49.306;6.934;2023-06-19T12:05:38;98161.50;;;35.50;30.55
22964;BME280;11648;49.306;6.934;2023-06-19T12:08:05;98158.78;;;35.19;31.79
22964;BME280;11648;49.306;6.934;2023-06-19T12:10:33;98170.72;;;34.88;31.93
22964;BME280;11648;49.306;6.934;2023-06-19T12:13:01;98173.22;;;34.97;31.78
22964;BME280;11648;49.306;6.934;2023-06-19T12:15:27;98170.09;;;34.69;32.41
22964;BME280;11648;49.306;6.934;2023-06-19T12:17:54;98169.22;;;34.53;32.56
22964;BME280;11648;49.306;6.934;2023-06-19T12:20:24;98167.06;;;34.08;33.60
22964;BME280;11648;49.306;6.934;2023-06-19T12:22:52;98162.69;;;33.49;33.92
22964;BME280;11648;49.306;6.934;2023-06-19T12:25:19;98173.72;;;33.15;34.29
22964;BME280;11648;49.306;6.934;2023-06-19T12:27:46;98177.88;;;33.43;34.11
22964;BME280;11648;49.306;6.934;2023-06-19T12:30:12;98173.72;;;33.23;34.70
22964;BME280;11648;49.306;6.934;2023-06-19T12:32:39;98165.94;;;33.44;34.46
22964;BME280;11648;49.306;6.934;2023-06-19T12:35:06;98169.88;;;33.58;34.56
22964;BME280;11648;49.306;6.934;2023-06-19T12:37:33;98156.97;;;34.00;33.92
22964;BME280;11648;49.306;6.934;2023-06-19T12:40:00;98152.66;;;34.46;33.38
22964;BME280;11648;49.306;6.934;2023-06-19T12:42:27;98156.25;;;34.55;33.09
22964;BME280;11648;49.306;6.934;2023-06-19T12:44:54;98153.78;;;34.84;32.92
22964;BME280;11648;49.306;6.934;2023-06-19T12:47:20;98144.72;;;35.53;32.00
22964;BME280;11648;49.306;6.934;2023-06-19T12:49:47;98134.41;;;35.86;31.13
22964;BME280;11648;49.306;6.934;2023-06-19T12:52:14;98128.72;;;36.10;31.16
22964;BME280;11648;49.306;6.934;2023-06-19T12:54:41;98131.53;;;35.80;31.12
22964;BME280;11648;49.306;6.934;2023-06-19T12:57:09;98128.38;;;35.68;32.25
22964;BME280;11648;49.306;6.934;2023-06-19T12:59:35;98129.31;;;35.30;32.72
22964;BME280;11648;49.306;6.934;2023-06-19T13:02:02;98134.78;;;34.91;33.00
22964;BME280;11648;49.306;6.934;2023-06-19T13:04:29;98135.75;;;35.06;33.38
22964;BME280;11648;49.306;6.934;2023-06-19T13:06:56;98120.47;;;35.19;32.79
22964;BME280;11648;49.306;6.934;2023-06-19T13:09:23;98126.38;;;34.92;32.92
22964;BME280;11648;49.306;6.934;2023-06-19T13:11:50;98129.31;;;34.91;33.46
22964;BME280;11648;49.306;6.934;2023-06-19T13:14:17;98121.72;;;34.70;33.77
22964;BME280;11648;49.306;6.934;2023-06-19T13:16:44;98124.97;;;34.65;34.06
22964;BME280;11648;49.306;6.934;2023-06-19T13:19:16;98120.34;;;34.66;34.47
22964;BME280;11648;49.306;6.934;2023-06-19T13:21:42;98125.97;;;34.72;34.06
22964;BME280;11648;49.306;6.934;2023-06-19T13:24:10;98119.88;;;34.38;34.31